createdAt,value
2023-09-18T00:01:15.598Z,97971.16
2023-09-18T00:04:18.096Z,97973.50
2023-09-18T00:07:20.623Z,97965.53
2023-09-18T00:10:24.546Z,97968.78
2023-09-18T00:13:27.186Z,97962.41
2023-09-18T00:16:31.329Z,97964.44
2023-09-18T00:19:36.733Z,97954.78
2023-09-18T00:22:39.319Z,97954.78
2023-09-18T00:25:43.549Z,97948.41
2023-09-18T00:28:46.236Z,97940.00
2023-09-18T00:31:48.858Z,97934.72
2023-09-18T00:34:51.738Z,97931.59
2023-09-18T00:37:54.137Z,97933.94
2023-09-18T00:40:58.047Z,97923.19
2023-09-18T00:44:00.606Z,97920.41
2023-09-18T00:47:03.263Z,97926.00
2023-09-18T00:50:06.963Z,97919.25
2023-09-18T00:53:10.325Z,97922.06
2023-09-18T00:56:14.338Z,97916.47
2023-09-18T00:59:17.419Z,97920.06
2023-09-18T01:02:21.760Z,97908.06
2023-09-18T01:05:24.464Z,97902.03
2023-09-18T01:08:27.066Z,97902.81
2023-09-18T01:11:34.985Z,97904.84
2023-09-18T01:14:43.741Z,97897.22
2023-09-18T01:17:47.273Z,97890.44
2023-09-18T01:20:49.920Z,97900.47
2023-09-18T01:23:53.743Z,97894.06
2023-09-18T01:26:56.298Z,97914.47
2023-09-18T01:29:58.814Z,97902.47
2023-09-18T01:33:01.610Z,97901.66
2023-09-18T01:36:04.307Z,97904.06
2023-09-18T01:39:11.288Z,97903.66
2023-09-18T01:42:13.827Z,97904.44
2023-09-18T01:45:16.422Z,97922.06
2023-09-18T01:48:19.029Z,97938.44
2023-09-18T01:51:21.614Z,97998.03
2023-09-18T01:54:25.731Z,97976.41
2023-09-18T01:57:28.369Z,97965.22
2023-09-18T02:00:30.981Z,97949.19
2023-09-18T02:03:49.248Z,97919.63
2023-09-18T02:06:56.675Z,97911.22
2023-09-18T02:10:00.550Z,97875.13
2023-09-18T02:13:03.172Z,97850.38
2023-09-18T02:16:05.819Z,97842.75
2023-09-18T02:22:36.010Z,97831.56
2023-09-18T02:25:41.304Z,97851.94
2023-09-18T02:28:43.816Z,97846.34
2023-09-18T02:31:47.173Z,97831.56
2023-09-18T02:34:49.723Z,97829.53
2023-09-18T02:37:52.300Z,97839.50
2023-09-18T02:40:56.155Z,97849.16
2023-09-18T02:43:58.758Z,97852.72
2023-09-18T02:47:01.340Z,97870.31
2023-09-18T02:50:05.351Z,97867.50
2023-09-18T02:53:08.476Z,97863.94
2023-09-18T02:56:12.404Z,97865.94
2023-09-18T02:59:14.969Z,97857.09
2023-09-18T03:02:17.590Z,97873.47
2023-09-18T03:05:20.274Z,97873.13
2023-09-18T03:08:22.854Z,97880.28
2023-09-18T03:11:28.444Z,97870.31
2023-09-18T03:14:31.142Z,97884.31
2023-09-18T03:17:34.565Z,97898.31
2023-09-18T03:20:37.254Z,97885.88
2023-09-18T03:23:39.926Z,97879.97
2023-09-18T03:26:43.846Z,97880.75
2023-09-18T03:29:46.353Z,97882.75
2023-09-18T03:32:50.346Z,97892.41
2023-09-18T03:35:55.773Z,97894.75
2023-09-18T03:38:59.255Z,97894.75
2023-09-18T03:42:04.154Z,97896.75
2023-09-18T03:45:08.865Z,97907.19
2023-09-18T03:48:12.633Z,97941.56
2023-09-18T03:51:17.278Z,97970.38
2023-09-18T03:54:20.142Z,97997.13
2023-09-18T03:57:24.102Z,98010.34
2023-09-18T04:00:27.055Z,98020.00
2023-09-18T04:03:29.817Z,98011.59
2023-09-18T04:06:38.411Z,98003.97
2023-09-18T04:09:40.976Z,98001.16
2023-09-18T04:12:47.106Z,97997.59
2023-09-18T04:15:49.745Z,97988.41
2023-09-18T04:18:52.682Z,97994.19
2023-09-18T04:21:55.399Z,97984.31
2023-09-18T04:24:58.048Z,97977.59
2023-09-18T04:28:01.909Z,97976.00
2023-09-18T04:31:04.541Z,97961.09
2023-09-18T04:34:07.766Z,97946.06
2023-09-18T04:37:10.344Z,97916.06
2023-09-18T04:40:13.440Z,97885.34
2023-09-18T04:43:17.461Z,97866.13
2023-09-18T04:46:20.059Z,97871.72
2023-09-18T04:49:22.896Z,97881.91
2023-09-18T04:52:25.285Z,97873.16
2023-09-18T04:55:27.786Z,97866.53
2023-09-18T04:58:31.740Z,97887.34
2023-09-18T05:01:34.354Z,97891.84
2023-09-18T05:04:36.953Z,97901.00
2023-09-18T05:07:39.530Z,97903.81
2023-09-18T05:10:42.080Z,97890.69
2023-09-18T05:13:45.937Z,97887.47
2023-09-18T05:16:48.620Z,97881.06
2023-09-18T05:19:51.190Z,97881.06
2023-09-18T05:22:55.061Z,97897.84
2023-09-18T05:25:57.576Z,97919.91
2023-09-18T05:29:01.441Z,97947.56
2023-09-18T05:32:04.997Z,97936.00
2023-09-18T05:35:11.102Z,97910.03
2023-09-18T05:38:15.350Z,97908.47
2023-09-18T05:41:18.014Z,97914.25
2023-09-18T05:44:22.002Z,97928.19
2023-09-18T05:47:25.047Z,97933.84
2023-09-18T05:50:30.403Z,97927.06
2023-09-18T05:53:35.826Z,97928.25
2023-09-18T05:56:39.351Z,97937.78
2023-09-18T05:59:44.828Z,97924.84
2023-09-18T06:02:47.734Z,97918.72
2023-09-18T06:05:50.216Z,97916.72
2023-09-18T06:08:54.885Z,97915.91
2023-09-18T06:11:57.745Z,97903.59
2023-09-18T06:15:01.748Z,97890.03
2023-09-18T06:18:05.504Z,97891.59
2023-09-18T06:21:08.230Z,97896.88
2023-09-18T06:24:10.851Z,97903.44
2023-09-18T06:27:13.364Z,97910.06
2023-09-18T06:30:17.547Z,97910.31
2023-09-18T06:33:20.174Z,97912.59
2023-09-18T06:36:22.679Z,97921.44
2023-09-18T06:39:27.151Z,97917.13
2023-09-18T06:42:30.512Z,97926.06
2023-09-18T06:45:34.849Z,97933.56
2023-09-18T06:48:37.446Z,97943.91
2023-09-18T06:51:43.549Z,97938.31
2023-09-18T06:54:47.090Z,97942.59
2023-09-18T06:57:51.669Z,97943.13
2023-09-18T07:00:55.528Z,97934.88
2023-09-18T07:03:58.699Z,97933.69
2023-09-18T07:07:03.247Z,97935.59
2023-09-18T07:10:06.681Z,97943.66
2023-09-18T07:13:09.973Z,97936.22
2023-09-18T07:16:14.552Z,97934.31
2023-09-18T07:19:18.386Z,97922.31
2023-09-18T07:22:21.201Z,97921.22
2023-09-18T07:25:23.789Z,97918.03
2023-09-18T07:28:26.404Z,97920.84
2023-09-18T07:31:30.344Z,97929.69
2023-09-18T07:34:33.221Z,97934.16
2023-09-18T07:37:36.440Z,97936.16
2023-09-18T07:40:38.982Z,97938.16
2023-09-18T07:43:42.842Z,97962.97
2023-09-18T07:46:46.725Z,97977.41
2023-09-18T07:49:49.858Z,97991.66
2023-09-18T07:52:52.434Z,97987.63
2023-09-18T07:55:58.491Z,97993.31
2023-09-18T07:59:01.114Z,97981.00
2023-09-18T08:02:05.561Z,97994.09
2023-09-18T08:05:09.617Z,97986.84
2023-09-18T08:08:12.278Z,98004.41
2023-09-18T08:11:14.941Z,98016.72
2023-09-18T08:14:18.232Z,98026.59
2023-09-18T08:17:22.161Z,98020.56
2023-09-18T08:20:24.942Z,98035.34
2023-09-18T08:23:27.345Z,98046.53
2023-09-18T08:26:29.898Z,98075.66
2023-09-18T08:29:32.539Z,98081.69
2023-09-18T08:32:36.551Z,98082.47
2023-09-18T08:35:40.606Z,98078.88
2023-09-18T08:38:45.257Z,98071.34
2023-09-18T08:41:51.886Z,98075.03
2023-09-18T08:44:56.328Z,98098.00
2023-09-18T08:48:00.837Z,98086.56
2023-09-18T08:51:05.690Z,98083.75
2023-09-18T08:54:08.358Z,98086.56
2023-09-18T08:57:11.001Z,98090.56
2023-09-18T09:00:17.679Z,98078.59
2023-09-18T09:03:24.503Z,98072.22
2023-09-18T09:06:27.338Z,98082.19
2023-09-18T09:09:30.827Z,98094.31
2023-09-18T09:12:49.871Z,98103.56
2023-09-18T09:15:54.733Z,98103.22
2023-09-18T09:18:58.812Z,98099.97
2023-09-18T09:22:01.969Z,98112.22
2023-09-18T09:25:05.190Z,98092.94
2023-09-18T09:28:09.989Z,98089.28
2023-09-18T09:31:12.986Z,98075.72
2023-09-18T09:34:26.993Z,98083.25
2023-09-18T09:37:32.285Z,98099.75
2023-09-18T09:40:36.311Z,98108.50
2023-09-18T09:43:38.886Z,98093.97
2023-09-18T09:46:47.835Z,98093.84
2023-09-18T09:49:51.746Z,98084.22
2023-09-18T09:52:55.949Z,98090.22
2023-09-18T09:55:58.627Z,98076.16
2023-09-18T09:59:09.006Z,98071.34
2023-09-18T10:02:13.480Z,98074.50
2023-09-18T10:05:19.294Z,98090.41
2023-09-18T10:08:24.567Z,98099.53
2023-09-18T10:11:28.433Z,98093.81
2023-09-18T10:14:40.481Z,98103.38
2023-09-18T10:17:51.366Z,98109.78
2023-09-18T10:20:59.991Z,98098.97
2023-09-18T10:24:07.788Z,98115.75
2023-09-18T10:27:12.438Z,98160.88
2023-09-18T10:30:16.867Z,98153.78
2023-09-18T10:33:19.596Z,98154.16
2023-09-18T10:36:23.621Z,98161.59
2023-09-18T10:39:28.185Z,98162.72
2023-09-18T10:42:32.095Z,98157.47
2023-09-18T10:45:34.725Z,98157.81
2023-09-18T10:48:37.541Z,98161.06
2023-09-18T10:51:43.251Z,98152.56
2023-09-18T10:54:46.540Z,98122.25
2023-09-18T10:57:53.311Z,98122.25
2023-09-18T11:00:58.601Z,98108.59
2023-09-18T11:04:02.998Z,98117.78
2023-09-18T11:07:07.483Z,98099.16
2023-09-18T11:10:28.700Z,98089.19
2023-09-18T11:13:31.352Z,98086.56
2023-09-18T11:16:40.290Z,98093.47
2023-09-18T11:19:44.124Z,98104.81
2023-09-18T11:22:51.996Z,98109.53
2023-09-18T11:25:55.230Z,98127.94
2023-09-18T11:28:58.698Z,98126.47
2023-09-18T11:32:05.487Z,98112.66
2023-09-18T11:35:09.860Z,98078.94
2023-09-18T11:38:17.239Z,98079.22
2023-09-18T11:41:26.412Z,98081.94
2023-09-18T11:44:41.955Z,98119.34
2023-09-18T11:47:47.871Z,98132.03
2023-09-18T11:50:52.122Z,98131.16
2023-09-18T11:53:57.902Z,98103.19
2023-09-18T11:57:05.786Z,98120.31
2023-09-18T12:00:23.350Z,98117.44
2023-09-18T12:03:29.282Z,98118.66
2023-09-18T12:06:32.221Z,98127.06
2023-09-18T12:09:36.041Z,98133.78
2023-09-18T12:12:38.574Z,98136.16
2023-09-18T12:15:41.438Z,98140.09
2023-09-18T12:18:48.928Z,98123.66
2023-09-18T12:21:51.375Z,98090.09
2023-09-18T12:24:55.816Z,98106.09
2023-09-18T12:28:00.360Z,98109.66
2023-09-18T12:31:07.208Z,98098.94
2023-09-18T12:34:15.932Z,98096.91
2023-09-18T12:37:18.343Z,98080.47
2023-09-18T12:40:28.844Z,98088.44
2023-09-18T12:43:32.741Z,98086.75
2023-09-18T12:46:35.479Z,98081.34
2023-09-18T12:49:39.027Z,98092.88
2023-09-18T12:52:42.240Z,98111.16
2023-09-18T12:55:46.195Z,98104.25
2023-09-18T12:59:07.098Z,98091.75
2023-09-18T13:02:11.187Z,98100.06
2023-09-18T13:05:15.724Z,98102.00
2023-09-18T13:08:18.162Z,98076.34
2023-09-18T13:11:22.024Z,98100.75
2023-09-18T13:14:24.538Z,98064.38
2023-09-18T13:17:27.123Z,98054.41
2023-09-18T13:20:30.382Z,98064.72
2023-09-18T13:23:33.768Z,98061.03
2023-09-18T13:26:37.859Z,98045.38
2023-09-18T13:29:40.348Z,98054.22
2023-09-18T13:32:42.933Z,98060.16
2023-09-18T13:35:45.865Z,98070.81
2023-09-18T13:38:48.325Z,98061.09
2023-09-18T13:41:52.151Z,98046.13
2023-09-18T13:44:54.883Z,98051.72
2023-09-18T13:47:57.405Z,98050.16
2023-09-18T13:50:59.916Z,98075.34
2023-09-18T13:54:02.360Z,98067.81
2023-09-18T13:57:06.527Z,98062.66
2023-09-18T14:00:11.796Z,98045.88
2023-09-18T14:03:16.542Z,98045.41
2023-09-18T14:06:19.335Z,98047.78
2023-09-18T14:09:25.819Z,98059.78
2023-09-18T14:12:31.169Z,98051.03
2023-09-18T14:15:33.593Z,98025.38
2023-09-18T14:18:36.135Z,98014.63
2023-09-18T14:21:40.262Z,98032.19
2023-09-18T14:24:42.832Z,98024.94
2023-09-18T14:27:46.573Z,98021.38
2023-09-18T14:30:49.086Z,98026.19
2023-09-18T14:33:51.632Z,98027.75
2023-09-18T14:36:54.165Z,98027.63
2023-09-18T14:39:56.598Z,98034.38
2023-09-18T14:43:00.398Z,98024.22
2023-09-18T14:46:03.937Z,98027.66
2023-09-18T14:49:09.323Z,98012.38
2023-09-18T14:52:11.881Z,98015.41
2023-09-18T14:55:14.370Z,98012.94
2023-09-18T14:58:19.274Z,98000.41
2023-09-18T15:01:22.067Z,97999.09
2023-09-18T15:04:24.551Z,97988.56
2023-09-18T15:07:27.882Z,97975.75
2023-09-18T15:10:30.370Z,97970.63
2023-09-18T15:13:35.728Z,97963.91
2023-09-18T15:16:38.387Z,97967.13
2023-09-18T15:19:40.946Z,97956.03
2023-09-18T15:22:43.377Z,97965.69
2023-09-18T15:25:46.016Z,97964.44
2023-09-18T15:28:49.727Z,97961.66
2023-09-18T15:31:52.213Z,97950.91
2023-09-18T15:34:55.482Z,97958.38
2023-09-18T15:37:58.023Z,97955.50
2023-09-18T15:41:00.429Z,97950.56
2023-09-18T15:44:04.387Z,97950.13
2023-09-18T15:47:07.128Z,97947.19
2023-09-18T15:50:10.709Z,97942.28
2023-09-18T15:53:13.145Z,97937.69
2023-09-18T15:56:16.397Z,97942.38
2023-09-18T15:59:20.524Z,97941.50
2023-09-18T16:02:24.379Z,97929.38
2023-09-18T16:05:27.397Z,97936.56
2023-09-18T16:08:30.217Z,97939.38
2023-09-18T16:11:33.090Z,97941.81
2023-09-18T16:14:36.952Z,97935.88
2023-09-18T16:17:39.532Z,97929.59
2023-09-18T16:20:42.118Z,97923.00
2023-09-18T16:23:44.523Z,97930.75
2023-09-18T16:26:47.504Z,97935.34
2023-09-18T16:29:51.355Z,97933.09
2023-09-18T16:33:02.024Z,97937.56
2023-09-18T16:36:05.474Z,97930.06
2023-09-18T16:39:07.979Z,97936.09
2023-09-18T16:42:10.403Z,97935.75
2023-09-18T16:45:14.233Z,97930.28
2023-09-18T16:48:16.749Z,97925.09
2023-09-18T16:51:19.239Z,97928.03
2023-09-18T16:54:23.678Z,97930.88
2023-09-18T16:57:26.168Z,97927.75
2023-09-18T17:00:29.889Z,97929.00
2023-09-18T17:03:32.380Z,97934.22
2023-09-18T17:06:36.022Z,97930.31
2023-09-18T17:09:38.468Z,97941.63
2023-09-18T17:12:41.256Z,97940.03
2023-09-18T17:15:45.172Z,97944.88
2023-09-18T17:18:47.736Z,97942.53
2023-09-18T17:21:50.174Z,97953.72
2023-09-18T17:24:52.635Z,97949.00
2023-09-18T17:27:55.563Z,97956.59
2023-09-18T17:31:00.712Z,97962.22
2023-09-18T17:34:03.439Z,97967.03
2023-09-18T17:37:08.115Z,97965.91
2023-09-18T17:40:11.306Z,97966.34
2023-09-18T17:43:13.741Z,97980.34
2023-09-18T17:46:17.593Z,97975.97
2023-09-18T17:49:21.887Z,97985.59
2023-09-18T17:52:25.537Z,97986.81
2023-09-18T17:55:27.967Z,97979.66
2023-09-18T17:58:30.334Z,97987.72
2023-09-18T18:01:34.196Z,97976.53
2023-09-18T18:04:37.973Z,97992.97
2023-09-18T18:07:41.340Z,97989.38
2023-09-18T18:10:44.289Z,97993.41
2023-09-18T18:13:46.752Z,98006.63
2023-09-18T18:16:50.757Z,97999.78
2023-09-18T18:19:53.187Z,98011.78
2023-09-18T18:22:58.134Z,98011.78
2023-09-18T18:26:03.843Z,98004.16
2023-09-18T18:29:06.474Z,98020.16
2023-09-18T18:32:10.307Z,98027.78
2023-09-18T18:35:13.597Z,98029.81
2023-09-18T18:38:16.087Z,98025.44
2023-09-18T18:41:18.500Z,98036.63
2023-09-18T18:44:20.870Z,98031.81
2023-09-18T18:47:24.677Z,98036.63
2023-09-18T18:50:27.214Z,98041.78
2023-09-18T18:53:30.920Z,98033.84
2023-09-18T18:56:33.444Z,98043.00
2023-09-18T18:59:35.910Z,98047.38
2023-09-18T19:02:41.051Z,98044.59
2023-09-18T19:06:01.139Z,98027.09
2023-09-18T19:09:05.544Z,98042.66
2023-09-18T19:12:08.977Z,98039.06
2023-09-18T19:15:12.091Z,98039.06
2023-09-18T19:18:14.766Z,98044.66
2023-09-18T19:21:18.727Z,98031.44
2023-09-18T19:24:21.329Z,98025.06
2023-09-18T19:27:24.501Z,98033.47
2023-09-18T19:30:27.407Z,98030.66
2023-09-18T19:33:30.074Z,98023.88
2023-09-18T19:36:34.027Z,98025.84
2023-09-18T19:39:36.758Z,98030.25
2023-09-18T19:42:39.263Z,98041.44
2023-09-18T19:45:41.865Z,98049.41
2023-09-18T19:48:44.519Z,98057.00
2023-09-18T19:51:48.692Z,98069.78
2023-09-18T19:54:51.359Z,98069.44
2023-09-18T19:57:54.733Z,98071.00
2023-09-18T20:00:57.515Z,98072.25
2023-09-18T20:04:00.644Z,98079.75
2023-09-18T20:07:07.446Z,98072.56
2023-09-18T20:10:12.215Z,98085.78
2023-09-18T20:13:14.797Z,98089.38
2023-09-18T20:16:17.415Z,98089.38
2023-09-18T20:19:20.942Z,98071.00
2023-09-18T20:22:25.105Z,98064.19
2023-09-18T20:25:28.150Z,98059.03
2023-09-18T20:28:31.303Z,98057.47
2023-09-18T20:31:33.922Z,98059.44
2023-09-18T20:34:36.569Z,98053.84
2023-09-18T20:37:40.495Z,98051.88
2023-09-18T20:40:44.705Z,98055.84
2023-09-18T20:43:47.257Z,98048.69
2023-09-18T20:46:49.817Z,98049.47
2023-09-18T20:49:54.488Z,98055.06
2023-09-18T20:52:58.398Z,98057.09
2023-09-18T20:56:00.963Z,98058.31
2023-09-18T20:59:05.890Z,98057.53
2023-09-18T21:02:11.638Z,98054.75
2023-09-18T21:05:14.497Z,98065.94
2023-09-18T21:08:18.415Z,98055.19
2023-09-18T21:11:21.490Z,98057.19
2023-09-18T21:14:24.152Z,98057.19
2023-09-18T21:17:26.962Z,98048.81
2023-09-18T21:20:29.564Z,98054.41
2023-09-18T21:23:33.466Z,98058.41
2023-09-18T21:26:36.062Z,98063.22
2023-09-18T21:29:38.638Z,98065.22
2023-09-18T21:32:41.352Z,98065.22
2023-09-18T21:35:43.944Z,98064.00
2023-09-18T21:38:49.489Z,98072.84
2023-09-18T21:41:52.083Z,98067.69
2023-09-18T21:44:54.616Z,98076.88
2023-09-18T21:47:57.319Z,98069.72
2023-09-18T21:51:00.634Z,98072.06
2023-09-18T21:54:05.027Z,98080.13
2023-09-18T21:57:07.725Z,98074.53
2023-09-18T22:00:29.125Z,98061.75
2023-09-18T22:03:38.135Z,98065.75
2023-09-18T22:06:41.004Z,98070.56
2023-09-18T22:09:47.458Z,98080.97
2023-09-18T22:12:50.012Z,98085.78
2023-09-18T22:15:52.638Z,98092.19
2023-09-18T22:18:55.288Z,98083.78
2023-09-18T22:21:58.037Z,98086.59
2023-09-18T22:25:02.130Z,98090.94
2023-09-18T22:28:05.818Z,98090.16
2023-09-18T22:31:09.092Z,98094.19
2023-09-18T22:34:11.724Z,98104.59
2023-09-18T22:37:14.266Z,98103.81
2023-09-18T22:40:16.760Z,98113.00
2023-09-18T22:43:56.553Z,98117.38
2023-09-18T22:47:37.157Z,98124.53
2023-09-18T22:51:17.497Z,98135.72
2023-09-18T22:54:19.848Z,98129.78
2023-09-18T22:57:25.693Z,98125.75
2023-09-18T23:00:30.127Z,98134.16
2023-09-18T23:03:33.408Z,98130.56
2023-09-18T23:06:36.020Z,98136.16
2023-09-18T23:09:38.579Z,98144.56
2023-09-18T23:12:43.696Z,98145.34
2023-09-18T23:15:48.498Z,98147.38
2023-09-18T23:18:51.951Z,98140.97
2023-09-18T23:21:55.754Z,98152.19
2023-09-18T23:24:58.484Z,98154.97
2023-09-18T23:28:04.125Z,98158.22
2023-09-18T23:31:07.633Z,98151.38
2023-09-18T23:34:13.144Z,98153.41
2023-09-18T23:37:15.806Z,98145.00
2023-09-18T23:40:18.919Z,98145.00
2023-09-18T23:43:25.636Z,98148.59
2023-09-18T23:46:28.859Z,98151.38
2023-09-18T23:49:32.761Z,98152.63
2023-09-18T23:52:35.511Z,98154.19
2023-09-18T23:55:38.671Z,98156.19
2023-09-18T23:58:43.037Z,98156.19
